sensor_id;sensor_type;location;lat;lon;timestamp;P1;durP1;ratioP1;P2;durP2;ratioP2
20699;SDS011;10511;51.232;9.420;2024-01-11T00:01:15;2.20;;;2.20;;
20699;SDS011;10511;51.232;9.420;2024-01-11T00:03:43;2.50;;;2.40;;
20699;SDS011;10511;51.232;9.420;2024-01-11T00:06:10;2.30;;;2.30;;
20699;SDS011;10511;51.232;9.420;2024-01-11T00:08:37;2.30;;;2.30;;
20699;SDS011;10511;51.232;9.420;2024-01-11T00:11:04;2.10;;;2.10;;
20699;SDS011;10511;51.232;9.420;2024-01-11T00:13:31;2.20;;;2.20;;
20699;SDS011;10511;51.232;9.420;2024-01-11T00:15:59;2.30;;;2.30;;
20699;SDS011;10511;51.232;9.420;2024-01-11T00:18:26;2.37;;;2.37;;
20699;SDS011;10511;51.232;9.420;2024-01-11T00:20:53;2.30;;;2.30;;
20699;SDS011;10511;51.232;9.420;2024-01-11T00:23:20;2.20;;;2.20;;
20699;SDS011;10511;51.232;9.420;2024-01-11T00:25:48;2.33;;;2.33;;
20699;SDS011;10511;51.232;9.420;2024-01-11T00:28:15;2.20;;;2.20;;
20699;SDS011;10511;51.232;9.420;2024-01-11T00:30:42;2.00;;;2.00;;
20699;SDS011;10511;51.232;9.420;2024-01-11T00:33:18;2.27;;;2.27;;
20699;SDS011;10511;51.232;9.420;2024-01-11T00:35:48;2.20;;;2.20;;
20699;SDS011;10511;51.232;9.420;2024-01-11T00:38:15;2.20;;;2.20;;
20699;SDS011;10511;51.232;9.420;2024-01-11T00:40:42;2.30;;;2.30;;
20699;SDS011;10511;51.232;9.420;2024-01-11T00:43:09;2.20;;;2.20;;
20699;SDS011;10511;51.232;9.420;2024-01-11T00:45:36;2.37;;;2.37;;
20699;SDS011;10511;51.232;9.420;2024-01-11T00:48:04;2.33;;;2.33;;
20699;SDS011;10511;51.232;9.420;2024-01-11T00:50:32;2.30;;;2.30;;
20699;SDS011;10511;51.232;9.420;2024-01-11T00:52:59;2.30;;;2.30;;
20699;SDS011;10511;51.232;9.420;2024-01-11T00:55:26;2.30;;;2.30;;
20699;SDS011;10511;51.232;9.420;2024-01-11T00:57:53;2.30;;;2.30;;
20699;SDS011;10511;51.232;9.420;2024-01-11T01:00:19;2.20;;;2.20;;
20699;SDS011;10511;51.232;9.420;2024-01-11T01:02:46;2.20;;;2.20;;
20699;SDS011;10511;51.232;9.420;2024-01-11T01:05:13;2.30;;;2.30;;
20699;SDS011;10511;51.232;9.420;2024-01-11T01:07:44;2.20;;;2.20;;
20699;SDS011;10511;51.232;9.420;2024-01-11T01:10:11;2.20;;;2.20;;
20699;SDS011;10511;51.232;9.420;2024-01-11T01:12:38;2.10;;;2.10;;
20699;SDS011;10511;51.232;9.420;2024-01-11T01:15:06;2.10;;;2.10;;
20699;SDS011;10511;51.232;9.420;2024-01-11T01:17:33;2.00;;;2.00;;
20699;SDS011;10511;51.232;9.420;2024-01-11T01:20:03;2.10;;;2.10;;
20699;SDS011;10511;51.232;9.420;2024-01-11T01:22:31;2.00;;;2.00;;
20699;SDS011;10511;51.232;9.420;2024-01-11T01:24:59;2.00;;;2.00;;
20699;SDS011;10511;51.232;9.420;2024-01-11T01:27:26;2.00;;;2.00;;
20699;SDS011;10511;51.232;9.420;2024-01-11T01:29:53;2.00;;;2.00;;
20699;SDS011;10511;51.232;9.420;2024-01-11T01:32:20;2.00;;;2.00;;
20699;SDS011;10511;51.232;9.420;2024-01-11T01:34:47;2.00;;;2.00;;
20699;SDS011;10511;51.232;9.420;2024-01-11T01:37:14;2.00;;;2.00;;
20699;SDS011;10511;51.232;9.420;2024-01-11T01:39:40;2.00;;;2.00;;
20699;SDS011;10511;51.232;9.420;2024-01-11T01:42:09;2.00;;;2.00;;
20699;SDS011;10511;51.232;9.420;2024-01-11T01:44:36;2.00;;;2.00;;
20699;SDS011;10511;51.232;9.420;2024-01-11T01:47:05;2.20;;;2.20;;
20699;SDS011;10511;51.232;9.420;2024-01-11T01:49:33;2.00;;;2.00;;
20699;SDS011;10511;51.232;9.420;2024-01-11T01:52:02;2.13;;;2.13;;
20699;SDS011;10511;51.232;9.420;2024-01-11T01:54:29;2.00;;;2.00;;
20699;SDS011;10511;51.232;9.420;2024-01-11T01:56:58;2.00;;;2.00;;
20699;SDS011;10511;51.232;9.420;2024-01-11T01:59:28;2.00;;;2.00;;
20699;SDS011;10511;51.232;9.420;2024-01-11T02:01:56;2.13;;;2.13;;
20699;SDS011;10511;51.232;9.420;2024-01-11T02:04:23;2.00;;;2.00;;
20699;SDS011;10511;51.232;9.420;2024-01-11T02:06:50;1.90;;;1.90;;
20699;SDS011;10511;51.232;9.420;2024-01-11T02:09:19;2.00;;;2.00;;
20699;SDS011;10511;51.232;9.420;2024-01-11T02:11:46;2.00;;;2.00;;
20699;SDS011;10511;51.232;9.420;2024-01-11T02:14:13;2.00;;;2.00;;
20699;SDS011;10511;51.232;9.420;2024-01-11T02:16:42;2.10;;;2.10;;
20699;SDS011;10511;51.232;9.420;2024-01-11T02:19:09;2.03;;;2.03;;
20699;SDS011;10511;51.232;9.420;2024-01-11T02:21:39;2.10;;;2.10;;
20699;SDS011;10511;51.232;9.420;2024-01-11T02:24:09;1.90;;;1.90;;
20699;SDS011;10511;51.232;9.420;2024-01-11T02:26:36;2.20;;;2.20;;
20699;SDS011;10511;51.232;9.420;2024-01-11T02:29:23;2.10;;;2.10;;
20699;SDS011;10511;51.232;9.420;2024-01-11T02:31:50;2.20;;;2.20;;
20699;SDS011;10511;51.232;9.420;2024-01-11T02:34:17;2.20;;;2.20;;
20699;SDS011;10511;51.232;9.420;2024-01-11T02:36:44;2.10;;;2.10;;
20699;SDS011;10511;51.232;9.420;2024-01-11T02:39:13;2.27;;;2.27;;
20699;SDS011;10511;51.232;9.420;2024-01-11T02:41:42;2.20;;;2.20;;
20699;SDS011;10511;51.232;9.420;2024-01-11T02:44:10;2.10;;;2.10;;
20699;SDS011;10511;51.232;9.420;2024-01-11T02:46:37;2.43;;;2.40;;
20699;SDS011;10511;51.232;9.420;2024-01-11T02:49:04;2.30;;;2.30;;
20699;SDS011;10511;51.232;9.420;2024-01-11T02:51:31;2.60;;;2.50;;
20699;SDS011;10511;51.232;9.420;2024-01-11T02:53:57;2.37;;;2.33;;
20699;SDS011;10511;51.232;9.420;2024-01-11T02:56:26;2.20;;;2.20;;
20699;SDS011;10511;51.232;9.420;2024-01-11T02:58:52;2.10;;;2.10;;
20699;SDS011;10511;51.232;9.420;2024-01-11T03:01:19;2.20;;;2.20;;
20699;SDS011;10511;51.232;9.420;2024-01-11T03:03:46;2.20;;;2.20;;
20699;SDS011;10511;51.232;9.420;2024-01-11T03:06:13;2.07;;;2.07;;
20699;SDS011;10511;51.232;9.420;2024-01-11T03:08:40;2.20;;;2.20;;
20699;SDS011;10511;51.232;9.420;2024-01-11T03:11:06;2.30;;;2.30;;
20699;SDS011;10511;51.232;9.420;2024-01-11T03:13:35;2.23;;;2.23;;
20699;SDS011;10511;51.232;9.420;2024-01-11T03:16:02;2.50;;;2.40;;
20699;SDS011;10511;51.232;9.420;2024-01-11T03:18:29;2.30;;;2.30;;
20699;SDS011;10511;51.232;9.420;2024-01-11T03:20:56;2.60;;;2.50;;
20699;SDS011;10511;51.232;9.420;2024-01-11T03:23:23;2.27;;;2.27;;
20699;SDS011;10511;51.232;9.420;2024-01-11T03:25:50;2.30;;;2.30;;
20699;SDS011;10511;51.232;9.420;2024-01-11T03:28:17;2.47;;;2.40;;
20699;SDS011;10511;51.232;9.420;2024-01-11T03:30:45;2.23;;;2.23;;
20699;SDS011;10511;51.232;9.420;2024-01-11T03:33:12;2.47;;;2.40;;
20699;SDS011;10511;51.232;9.420;2024-01-11T03:35:39;2.50;;;2.40;;
20699;SDS011;10511;51.232;9.420;2024-01-11T03:38:06;2.17;;;2.17;;
20699;SDS011;10511;51.232;9.420;2024-01-11T03:40:32;2.20;;;2.20;;
20699;SDS011;10511;51.232;9.420;2024-01-11T03:42:59;2.03;;;2.03;;
20699;SDS011;10511;51.232;9.420;2024-01-11T03:45:26;2.30;;;2.30;;
20699;SDS011;10511;51.232;9.420;2024-01-11T03:47:54;2.50;;;2.40;;
20699;SDS011;10511;51.232;9.420;2024-01-11T03:50:21;2.50;;;2.40;;
20699;SDS011;10511;51.232;9.420;2024-01-11T03:52:48;2.50;;;2.40;;
20699;SDS011;10511;51.232;9.420;2024-01-11T03:55:15;2.50;;;2.40;;
20699;SDS011;10511;51.232;9.420;2024-01-11T03:57:41;2.63;;;2.53;;
20699;SDS011;10511;51.232;9.420;2024-01-11T04:00:09;2.70;;;2.60;;
20699;SDS011;10511;51.232;9.420;2024-01-11T04:02:37;2.60;;;2.50;;
20699;SDS011;10511;51.232;9.420;2024-01-11T04:05:05;2.50;;;2.40;;
20699;SDS011;10511;51.232;9.420;2024-01-11T04:07:33;2.50;;;2.40;;
20699;SDS011;10511;51.232;9.420;2024-01-11T04:10:00;2.30;;;2.30;;
20699;SDS011;10511;51.232;9.420;2024-01-11T04:12:27;2.70;;;2.60;;
20699;SDS011;10511;51.232;9.420;2024-01-11T04:14:54;2.37;;;2.37;;
20699;SDS011;10511;51.232;9.420;2024-01-11T04:17:21;2.20;;;2.20;;
20699;SDS011;10511;51.232;9.420;2024-01-11T04:19:48;2.60;;;2.50;;
20699;SDS011;10511;51.232;9.420;2024-01-11T04:22:16;2.30;;;2.30;;
20699;SDS011;10511;51.232;9.420;2024-01-11T04:24:43;2.20;;;2.20;;
20699;SDS011;10511;51.232;9.420;2024-01-11T04:27:10;2.10;;;2.10;;
20699;SDS011;10511;51.232;9.420;2024-01-11T04:29:36;2.20;;;2.20;;
20699;SDS011;10511;51.232;9.420;2024-01-11T04:32:03;2.20;;;2.20;;
20699;SDS011;10511;51.232;9.420;2024-01-11T04:34:30;2.40;;;2.40;;
20699;SDS011;10511;51.232;9.420;2024-01-11T04:36:57;2.20;;;2.20;;
20699;SDS011;10511;51.232;9.420;2024-01-11T04:39:25;2.23;;;2.23;;
20699;SDS011;10511;51.232;9.420;2024-01-11T04:41:52;2.20;;;2.20;;
20699;SDS011;10511;51.232;9.420;2024-01-11T04:44:19;2.20;;;2.20;;
20699;SDS011;10511;51.232;9.420;2024-01-11T04:46:46;2.20;;;2.20;;
20699;SDS011;10511;51.232;9.420;2024-01-11T04:49:13;2.50;;;2.40;;
20699;SDS011;10511;51.232;9.420;2024-01-11T04:51:40;2.40;;;2.37;;
20699;SDS011;10511;51.232;9.420;2024-01-11T04:54:07;2.60;;;2.50;;
20699;SDS011;10511;51.232;9.420;2024-01-11T04:56:35;2.53;;;2.43;;
20699;SDS011;10511;51.232;9.420;2024-01-11T04:59:02;2.20;;;2.20;;
20699;SDS011;10511;51.232;9.420;2024-01-11T05:01:29;2.40;;;2.40;;
20699;SDS011;10511;51.232;9.420;2024-01-11T05:03:56;2.30;;;2.30;;
20699;SDS011;10511;51.232;9.420;2024-01-11T05:06:23;2.10;;;2.10;;
20699;SDS011;10511;51.232;9.420;2024-01-11T05:08:51;2.40;;;2.40;;
20699;SDS011;10511;51.232;9.420;2024-01-11T05:11:18;2.30;;;2.30;;
20699;SDS011;10511;51.232;9.420;2024-01-11T05:13:48;2.50;;;2.40;;
20699;SDS011;10511;51.232;9.420;2024-01-11T05:16:21;2.47;;;2.40;;
20699;SDS011;10511;51.232;9.420;2024-01-11T05:18:49;2.30;;;2.30;;
20699;SDS011;10511;51.232;9.420;2024-01-11T05:21:16;2.23;;;2.23;;
20699;SDS011;10511;51.232;9.420;2024-01-11T05:23:43;2.50;;;2.40;;
20699;SDS011;10511;51.232;9.420;2024-01-11T05:26:10;2.50;;;2.40;;
20699;SDS011;10511;51.232;9.420;2024-01-11T05:28:38;2.57;;;2.47;;
20699;SDS011;10511;51.232;9.420;2024-01-11T05:31:06;2.20;;;2.20;;
20699;SDS011;10511;51.232;9.420;2024-01-11T05:33:35;2.63;;;2.53;;
20699;SDS011;10511;51.232;9.420;2024-01-11T05:36:02;2.60;;;2.50;;
20699;SDS011;10511;51.232;9.420;2024-01-11T05:38:30;2.50;;;2.40;;
20699;SDS011;10511;51.232;9.420;2024-01-11T05:40:56;2.50;;;2.40;;
20699;SDS011;10511;51.232;9.420;2024-01-11T05:43:23;2.63;;;2.53;;
20699;SDS011;10511;51.232;9.420;2024-01-11T05:45:50;2.70;;;2.60;;
20699;SDS011;10511;51.232;9.420;2024-01-11T05:48:18;2.43;;;2.40;;
20699;SDS011;10511;51.232;9.420;2024-01-11T05:50:45;2.57;;;2.47;;
20699;SDS011;10511;51.232;9.420;2024-01-11T05:53:12;2.57;;;2.47;;
20699;SDS011;10511;51.232;9.420;2024-01-11T05:55:39;2.80;;;2.70;;
20699;SDS011;10511;51.232;9.420;2024-01-11T05:58:06;2.70;;;2.60;;
20699;SDS011;10511;51.232;9.420;2024-01-11T06:00:36;2.70;;;2.60;;
20699;SDS011;10511;51.232;9.420;2024-01-11T06:03:03;2.40;;;2.40;;
20699;SDS011;10511;51.232;9.420;2024-01-11T06:05:32;2.53;;;2.43;;
20699;SDS011;10511;51.232;9.420;2024-01-11T06:07:58;2.30;;;2.30;;
20699;SDS011;10511;51.232;9.420;2024-01-11T06:10:25;2.40;;;2.40;;
20699;SDS011;10511;51.232;9.420;2024-01-11T06:12:53;2.50;;;2.40;;
20699;SDS011;10511;51.232;9.420;2024-01-11T06:15:21;2.40;;;2.40;;
20699;SDS011;10511;51.232;9.420;2024-01-11T06:17:48;2.30;;;2.30;;
20699;SDS011;10511;51.232;9.420;2024-01-11T06:20:15;2.30;;;2.30;;
20699;SDS011;10511;51.232;9.420;2024-01-11T06:22:43;2.20;;;2.20;;
20699;SDS011;10511;51.232;9.420;2024-01-11T06:25:10;2.30;;;2.30;;
20699;SDS011;10511;51.232;9.420;2024-01-11T06:27:37;2.50;;;2.40;;
20699;SDS011;10511;51.232;9.420;2024-01-11T06:30:04;2.50;;;2.40;;
20699;SDS011;10511;51.232;9.420;2024-01-11T06:32:32;2.20;;;2.20;;
20699;SDS011;10511;51.232;9.420;2024-01-11T06:34:59;2.50;;;2.40;;
20699;SDS011;10511;51.232;9.420;2024-01-11T06:37:27;2.60;;;2.50;;
20699;SDS011;10511;51.232;9.420;2024-01-11T06:39:55;2.20;;;2.20;;
20699;SDS011;10511;51.232;9.420;2024-01-11T06:42:22;2.50;;;2.40;;
20699;SDS011;10511;51.232;9.420;2024-01-11T06:44:48;2.37;;;2.37;;
20699;SDS011;10511;51.232;9.420;2024-01-11T06:47:14;2.30;;;2.30;;
20699;SDS011;10511;51.232;9.420;2024-01-11T06:49:41;2.30;;;2.30;;
20699;SDS011;10511;51.232;9.420;2024-01-11T06:52:08;2.30;;;2.30;;
20699;SDS011;10511;51.232;9.420;2024-01-11T06:54:35;2.10;;;2.10;;
20699;SDS011;10511;51.232;9.420;2024-01-11T06:57:03;2.30;;;2.30;;
20699;SDS011;10511;51.232;9.420;2024-01-11T06:59:30;2.30;;;2.30;;
20699;SDS011;10511;51.232;9.420;2024-01-11T07:01:57;2.20;;;2.20;;
20699;SDS011;10511;51.232;9.420;2024-01-11T07:04:24;2.20;;;2.20;;
20699;SDS011;10511;51.232;9.420;2024-01-11T07:06:51;2.27;;;2.27;;
20699;SDS011;10511;51.232;9.420;2024-01-11T07:09:18;2.50;;;2.40;;
20699;SDS011;10511;51.232;9.420;2024-01-11T07:11:45;2.43;;;2.37;;
20699;SDS011;10511;51.232;9.420;2024-01-11T07:14:13;2.27;;;2.27;;
20699;SDS011;10511;51.232;9.420;2024-01-11T07:16:40;2.50;;;2.40;;
20699;SDS011;10511;51.232;9.420;2024-01-11T07:19:07;2.20;;;2.20;;
20699;SDS011;10511;51.232;9.420;2024-01-11T07:21:34;2.20;;;2.20;;
20699;SDS011;10511;51.232;9.420;2024-01-11T07:24:00;2.20;;;2.20;;
20699;SDS011;10511;51.232;9.420;2024-01-11T07:26:27;2.20;;;2.20;;
20699;SDS011;10511;51.232;9.420;2024-01-11T07:28:54;2.30;;;2.30;;
20699;SDS011;10511;51.232;9.420;2024-01-11T07:31:22;2.13;;;2.13;;
20699;SDS011;10511;51.232;9.420;2024-01-11T07:33:49;2.37;;;2.37;;
20699;SDS011;10511;51.232;9.420;2024-01-11T07:36:16;2.50;;;2.40;;
20699;SDS011;10511;51.232;9.420;2024-01-11T07:38:43;2.30;;;2.30;;
20699;SDS011;10511;51.232;9.420;2024-01-11T07:41:10;2.30;;;2.30;;
20699;SDS011;10511;51.232;9.420;2024-01-11T07:43:37;2.50;;;2.40;;
20699;SDS011;10511;51.232;9.420;2024-01-11T07:46:04;2.10;;;2.10;;
20699;SDS011;10511;51.232;9.420;2024-01-11T07:48:34;2.57;;;2.47;;
20699;SDS011;10511;51.232;9.420;2024-01-11T07:51:01;2.20;;;2.20;;
20699;SDS011;10511;51.232;9.420;2024-01-11T07:53:28;2.30;;;2.30;;
20699;SDS011;10511;51.232;9.420;2024-01-11T07:55:56;2.50;;;2.40;;
20699;SDS011;10511;51.232;9.420;2024-01-11T07:58:23;2.10;;;2.10;;
20699;SDS011;10511;51.232;9.420;2024-01-11T08:00:50;2.30;;;2.30;;
20699;SDS011;10511;51.232;9.420;2024-01-11T08:03:17;2.10;;;2.10;;
20699;SDS011;10511;51.232;9.420;2024-01-11T08:05:45;2.30;;;2.30;;
20699;SDS011;10511;51.232;9.420;2024-01-11T08:08:15;2.10;;;2.10;;
20699;SDS011;10511;51.232;9.420;2024-01-11T08:10:42;2.37;;;2.37;;
20699;SDS011;10511;51.232;9.420;2024-01-11T08:13:09;2.43;;;2.40;;
20699;SDS011;10511;51.232;9.420;2024-01-11T08:15:38;2.40;;;2.40;;
20699;SDS011;10511;51.232;9.420;2024-01-11T08:18:04;2.47;;;2.40;;
20699;SDS011;10511;51.232;9.420;2024-01-11T08:20:31;2.30;;;2.30;;
20699;SDS011;10511;51.232;9.420;2024-01-11T08:23:00;2.30;;;2.30;;
20699;SDS011;10511;51.232;9.420;2024-01-11T08:25:28;2.30;;;2.30;;
20699;SDS011;10511;51.232;9.420;2024-01-11T08:27:55;2.10;;;2.10;;
20699;SDS011;10511;51.232;9.420;2024-01-11T08:30:22;2.30;;;2.30;;
20699;SDS011;10511;51.232;9.420;2024-01-11T08:32:49;2.40;;;2.40;;
20699;SDS011;10511;51.232;9.420;2024-01-11T08:35:16;2.10;;;2.10;;
20699;SDS011;10511;51.232;9.420;2024-01-11T08:37:43;2.30;;;2.30;;
20699;SDS011;10511;51.232;9.420;2024-01-11T08:40:11;2.30;;;2.30;;
20699;SDS011;10511;51.232;9.420;2024-01-11T08:42:38;2.10;;;2.10;;
20699;SDS011;10511;51.232;9.420;2024-01-11T08:45:06;2.20;;;2.20;;
20699;SDS011;10511;51.232;9.420;2024-01-11T08:47:33;2.30;;;2.30;;
20699;SDS011;10511;51.232;9.420;2024-01-11T08:50:03;2.10;;;2.10;;
20699;SDS011;10511;51.232;9.420;2024-01-11T08:52:32;2.10;;;2.10;;
20699;SDS011;10511;51.232;9.420;2024-01-11T08:54:58;2.40;;;2.40;;
20699;SDS011;10511;51.232;9.420;2024-01-11T08:57:27;2.37;;;2.37;;
20699;SDS011;10511;51.232;9.420;2024-01-11T08:59:53;2.30;;;2.30;;
20699;SDS011;10511;51.232;9.420;2024-01-11T09:02:20;2.20;;;2.20;;
20699;SDS011;10511;51.232;9.420;2024-01-11T09:04:47;2.30;;;2.30;;
20699;SDS011;10511;51.232;9.420;2024-01-11T09:07:14;2.20;;;2.20;;
20699;SDS011;10511;51.232;9.420;2024-01-11T09:09:41;2.30;;;2.30;;
20699;SDS011;10511;51.232;9.420;2024-01-11T09:12:09;2.20;;;2.20;;
20699;SDS011;10511;51.232;9.420;2024-01-11T09:14:37;2.20;;;2.20;;
20699;SDS011;10511;51.232;9.420;2024-01-11T09:17:05;2.30;;;2.30;;
20699;SDS011;10511;51.232;9.420;2024-01-11T09:19:33;2.23;;;2.23;;
20699;SDS011;10511;51.232;9.420;2024-01-11T09:22:00;2.30;;;2.30;;
20699;SDS011;10511;51.232;9.420;2024-01-11T09:24:27;2.30;;;2.30;;
20699;SDS011;10511;51.232;9.420;2024-01-11T09:26:54;2.50;;;2.40;;
20699;SDS011;10511;51.232;9.420;2024-01-11T09:29:21;2.60;;;2.50;;
20699;SDS011;10511;51.232;9.420;2024-01-11T09:31:49;2.30;;;2.30;;
20699;SDS011;10511;51.232;9.420;2024-01-11T09:34:16;2.20;;;2.20;;
20699;SDS011;10511;51.232;9.420;2024-01-11T09:36:43;2.30;;;2.30;;
20699;SDS011;10511;51.232;9.420;2024-01-11T09:39:10;2.33;;;2.33;;
20699;SDS011;10511;51.232;9.420;2024-01-11T09:41:38;2.10;;;2.10;;
20699;SDS011;10511;51.232;9.420;2024-01-11T09:44:09;2.20;;;2.20;;
20699;SDS011;10511;51.232;9.420;2024-01-11T09:46:36;2.37;;;2.33;;
20699;SDS011;10511;51.232;9.420;2024-01-11T09:49:04;2.30;;;2.30;;
20699;SDS011;10511;51.232;9.420;2024-01-11T09:51:34;2.10;;;2.10;;
20699;SDS011;10511;51.232;9.420;2024-01-11T09:54:02;2.30;;;2.30;;
20699;SDS011;10511;51.232;9.420;2024-01-11T09:56:29;2.20;;;2.20;;
20699;SDS011;10511;51.232;9.420;2024-01-11T09:58:57;2.30;;;2.30;;
20699;SDS011;10511;51.232;9.420;2024-01-11T10:01:24;2.30;;;2.30;;
20699;SDS011;10511;51.232;9.420;2024-01-11T10:03:52;2.23;;;2.23;;
20699;SDS011;10511;51.232;9.420;2024-01-11T10:06:21;2.30;;;2.30;;
20699;SDS011;10511;51.232;9.420;2024-01-11T10:08:52;2.20;;;2.20;;
20699;SDS011;10511;51.232;9.420;2024-01-11T10:11:19;2.20;;;2.20;;
20699;SDS011;10511;51.232;9.420;2024-01-11T10:13:45;2.10;;;2.10;;
20699;SDS011;10511;51.232;9.420;2024-01-11T10:16:13;2.10;;;2.10;;
20699;SDS011;10511;51.232;9.420;2024-01-11T10:18:40;2.13;;;2.13;;
20699;SDS011;10511;51.232;9.420;2024-01-11T10:21:08;2.20;;;2.20;;
20699;SDS011;10511;51.232;9.420;2024-01-11T10:23:37;2.20;;;2.20;;
20699;SDS011;10511;51.232;9.420;2024-01-11T10:26:04;2.20;;;2.20;;
20699;SDS011;10511;51.232;9.420;2024-01-11T10:28:32;2.20;;;2.20;;
20699;SDS011;10511;51.232;9.420;2024-01-11T10:31:02;2.10;;;2.10;;
20699;SDS011;10511;51.232;9.420;2024-01-11T10:33:33;2.00;;;2.00;;
20699;SDS011;10511;51.232;9.420;2024-01-11T10:36:00;2.10;;;2.10;;
20699;SDS011;10511;51.232;9.420;2024-01-11T10:38:28;2.10;;;2.10;;
20699;SDS011;10511;51.232;9.420;2024-01-11T10:40:58;2.10;;;2.10;;
20699;SDS011;10511;51.232;9.420;2024-01-11T10:43:26;2.10;;;2.10;;
20699;SDS011;10511;51.232;9.420;2024-01-11T10:45:55;1.90;;;1.90;;
20699;SDS011;10511;51.232;9.420;2024-01-11T10:48:28;2.03;;;2.03;;
20699;SDS011;10511;51.232;9.420;2024-01-11T10:50:58;2.10;;;2.10;;
20699;SDS011;10511;51.232;9.420;2024-01-11T10:53:28;1.93;;;1.93;;
20699;SDS011;10511;51.232;9.420;2024-01-11T10:56:04;2.00;;;2.00;;
20699;SDS011;10511;51.232;9.420;2024-01-11T10:58:32;1.80;;;1.80;;
20699;SDS011;10511;51.232;9.420;2024-01-11T11:01:00;2.00;;;2.00;;
20699;SDS011;10511;51.232;9.420;2024-01-11T11:03:29;1.90;;;1.90;;
20699;SDS011;10511;51.232;9.420;2024-01-11T11:05:58;2.00;;;2.00;;
20699;SDS011;10511;51.232;9.420;2024-01-11T11:08:25;1.90;;;1.90;;
20699;SDS011;10511;51.232;9.420;2024-01-11T11:10:54;2.00;;;2.00;;
20699;SDS011;10511;51.232;9.420;2024-01-11T11:13:23;2.00;;;2.00;;
20699;SDS011;10511;51.232;9.420;2024-01-11T11:15:50;1.90;;;1.90;;
20699;SDS011;10511;51.232;9.420;2024-01-11T11:18:18;1.80;;;1.80;;
20699;SDS011;10511;51.232;9.420;2024-01-11T11:20:46;1.90;;;1.90;;
20699;SDS011;10511;51.232;9.420;2024-01-11T11:23:14;1.80;;;1.80;;
20699;SDS011;10511;51.232;9.420;2024-01-11T11:25:44;1.90;;;1.90;;
20699;SDS011;10511;51.232;9.420;2024-01-11T11:28:12;1.80;;;1.80;;
20699;SDS011;10511;51.232;9.420;2024-01-11T11:30:42;1.80;;;1.80;;
20699;SDS011;10511;51.232;9.420;2024-01-11T11:33:10;1.80;;;1.80;;
20699;SDS011;10511;51.232;9.420;2024-01-11T11:35:41;1.90;;;1.90;;
20699;SDS011;10511;51.232;9.420;2024-01-11T11:38:09;1.80;;;1.80;;
20699;SDS011;10511;51.232;9.420;2024-01-11T11:40:43;1.80;;;1.80;;
20699;SDS011;10511;51.232;9.420;2024-01-11T11:43:13;1.80;;;1.80;;
20699;SDS011;10511;51.232;9.420;2024-01-11T11:45:44;1.80;;;1.80;;
20699;SDS011;10511;51.232;9.420;2024-01-11T11:51:14;1.80;;;1.80;;
20699;SDS011;10511;51.232;9.420;2024-01-11T11:53:42;1.70;;;1.70;;
20699;SDS011;10511;51.232;9.420;2024-01-11T11:56:09;1.70;;;1.70;;
20699;SDS011;10511;51.232;9.420;2024-01-11T11:58:37;1.60;;;1.60;;
20699;SDS011;10511;51.232;9.420;2024-01-11T12:01:06;1.70;;;1.70;;
20699;SDS011;10511;51.232;9.420;2024-01-11T12:03:34;1.70;;;1.70;;
20699;SDS011;10511;51.232;9.420;2024-01-11T12:06:03;1.80;;;1.80;;
20699;SDS011;10511;51.232;9.420;2024-01-11T12:08:31;1.70;;;1.70;;
20699;SDS011;10511;51.232;9.420;2024-01-11T12:10:58;1.60;;;1.60;;
20699;SDS011;10511;51.232;9.420;2024-01-11T12:13:25;1.60;;;1.60;;
20699;SDS011;10511;51.232;9.420;2024-01-11T12:15:53;1.60;;;1.60;;
20699;SDS011;10511;51.232;9.420;2024-01-11T12:18:21;1.70;;;1.70;;
20699;SDS011;10511;51.232;9.420;2024-01-11T12:20:48;1.60;;;1.60;;
20699;SDS011;10511;51.232;9.420;2024-01-11T12:23:15;1.70;;;1.70;;
20699;SDS011;10511;51.232;9.420;2024-01-11T12:25:42;1.80;;;1.80;;
20699;SDS011;10511;51.232;9.420;2024-01-11T12:28:09;1.70;;;1.70;;
20699;SDS011;10511;51.232;9.420;2024-01-11T12:30:37;1.70;;;1.70;;
20699;SDS011;10511;51.232;9.420;2024-01-11T12:33:04;1.60;;;1.60;;
20699;SDS011;10511;51.232;9.420;2024-01-11T12:35:33;1.60;;;1.60;;
20699;SDS011;10511;51.232;9.420;2024-01-11T12:38:00;1.77;;;1.77;;
20699;SDS011;10511;51.232;9.420;2024-01-11T12:40:31;1.60;;;1.60;;
20699;SDS011;10511;51.232;9.420;2024-01-11T12:42:59;1.60;;;1.60;;
20699;SDS011;10511;51.232;9.420;2024-01-11T12:45:26;1.77;;;1.77;;
20699;SDS011;10511;51.232;9.420;2024-01-11T12:47:53;1.67;;;1.67;;
20699;SDS011;10511;51.232;9.420;2024-01-11T12:50:22;1.50;;;1.50;;
20699;SDS011;10511;51.232;9.420;2024-01-11T12:55:37;1.80;;;1.80;;
20699;SDS011;10511;51.232;9.420;2024-01-11T12:58:04;1.60;;;1.60;;
20699;SDS011;10511;51.232;9.420;2024-01-11T13:00:32;1.80;;;1.80;;
20699;SDS011;10511;51.232;9.420;2024-01-11T13:02:58;1.90;;;1.90;;
20699;SDS011;10511;51.232;9.420;2024-01-11T13:05:25;1.70;;;1.70;;
20699;SDS011;10511;51.232;9.420;2024-01-11T13:07:52;1.80;;;1.80;;
20699;SDS011;10511;51.232;9.420;2024-01-11T13:10:20;1.80;;;1.80;;
20699;SDS011;10511;51.232;9.420;2024-01-11T13:12:53;1.87;;;1.87;;
20699;SDS011;10511;51.232;9.420;2024-01-11T13:15:19;1.80;;;1.80;;
20699;SDS011;10511;51.232;9.420;2024-01-11T13:17:47;1.80;;;1.80;;
20699;SDS011;10511;51.232;9.420;2024-01-11T13:20:13;1.70;;;1.70;;
20699;SDS011;10511;51.232;9.420;2024-01-11T13:22:40;1.70;;;1.70;;
20699;SDS011;10511;51.232;9.420;2024-01-11T13:25:07;1.60;;;1.60;;
20699;SDS011;10511;51.232;9.420;2024-01-11T13:27:35;1.70;;;1.70;;
20699;SDS011;10511;51.232;9.420;2024-01-11T13:30:02;1.60;;;1.60;;
20699;SDS011;10511;51.232;9.420;2024-01-11T13:32:30;1.60;;;1.60;;
20699;SDS011;10511;51.232;9.420;2024-01-11T13:34:57;1.67;;;1.67;;
20699;SDS011;10511;51.232;9.420;2024-01-11T13:37:24;1.50;;;1.50;;
20699;SDS011;10511;51.232;9.420;2024-01-11T13:39:51;1.80;;;1.80;;
20699;SDS011;10511;51.232;9.420;2024-01-11T13:42:18;1.60;;;1.60;;
20699;SDS011;10511;51.232;9.420;2024-01-11T13:44:46;1.60;;;1.60;;
20699;SDS011;10511;51.232;9.420;2024-01-11T13:47:13;1.60;;;1.60;;
20699;SDS011;10511;51.232;9.420;2024-01-11T13:49:40;1.60;;;1.60;;
20699;SDS011;10511;51.232;9.420;2024-01-11T13:52:07;1.63;;;1.63;;
20699;SDS011;10511;51.232;9.420;2024-01-11T13:54:33;1.50;;;1.50;;
20699;SDS011;10511;51.232;9.420;2024-01-11T13:57:01;1.60;;;1.60;;
20699;SDS011;10511;51.232;9.420;2024-01-11T13:59:28;1.53;;;1.53;;
20699;SDS011;10511;51.232;9.420;2024-01-11T14:01:56;1.50;;;1.50;;
20699;SDS011;10511;51.232;9.420;2024-01-11T14:04:23;1.60;;;1.60;;
20699;SDS011;10511;51.232;9.420;2024-01-11T14:06:50;1.60;;;1.60;;
20699;SDS011;10511;51.232;9.420;2024-01-11T14:09:17;1.60;;;1.60;;
20699;SDS011;10511;51.232;9.420;2024-01-11T14:11:44;1.50;;;1.50;;
20699;SDS011;10511;51.232;9.420;2024-01-11T14:14:13;1.50;;;1.50;;
20699;SDS011;10511;51.232;9.420;2024-01-11T14:16:40;1.50;;;1.50;;
20699;SDS011;10511;51.232;9.420;2024-01-11T14:19:08;1.60;;;1.60;;
20699;SDS011;10511;51.232;9.420;2024-01-11T14:21:36;1.60;;;1.60;;
20699;SDS011;10511;51.232;9.420;2024-01-11T14:24:03;1.50;;;1.50;;
20699;SDS011;10511;51.232;9.420;2024-01-11T14:26:30;1.50;;;1.50;;
20699;SDS011;10511;51.232;9.420;2024-01-11T14:28:58;1.53;;;1.53;;
20699;SDS011;10511;51.232;9.420;2024-01-11T14:31:26;1.50;;;1.50;;
20699;SDS011;10511;51.232;9.420;2024-01-11T14:33:53;1.40;;;1.40;;
20699;SDS011;10511;51.232;9.420;2024-01-11T14:36:21;1.57;;;1.57;;
20699;SDS011;10511;51.232;9.420;2024-01-11T14:38:48;1.50;;;1.50;;
20699;SDS011;10511;51.232;9.420;2024-01-11T14:41:15;1.50;;;1.50;;
20699;SDS011;10511;51.232;9.420;2024-01-11T14:43:41;1.50;;;1.50;;
20699;SDS011;10511;51.232;9.420;2024-01-11T14:46:08;1.60;;;1.60;;
20699;SDS011;10511;51.232;9.420;2024-01-11T14:48:36;1.70;;;1.70;;
20699;SDS011;10511;51.232;9.420;2024-01-11T14:51:03;1.70;;;1.70;;
20699;SDS011;10511;51.232;9.420;2024-01-11T14:53:34;1.70;;;1.70;;
20699;SDS011;10511;51.232;9.420;2024-01-11T14:56:01;1.70;;;1.70;;